sensor_id;sensor_type;location;lat;lon;timestamp;pressure;altitude;pressure_sealevel;temperature
20733;BMP180;10527;52.124;5.196;2023-04-06T00:01:03;101697.00;;;17.30
20733;BMP180;10527;52.124;5.196;2023-04-06T00:03:30;101709.00;;;17.30
20733;BMP180;10527;52.124;5.196;2023-04-06T00:05:57;101696.00;;;17.30
20733;BMP180;10527;52.124;5.196;2023-04-06T00:08:23;101689.00;;;17.30
20733;BMP180;10527;52.124;5.196;2023-04-06T00:10:50;101690.00;;;17.20
20733;BMP180;10527;52.124;5.196;2023-04-06T00:13:17;101689.00;;;17.20
20733;BMP180;10527;52.124;5.196;2023-04-06T00:15:44;101687.00;;;17.20
20733;BMP180;10527;52.124;5.196;2023-04-06T00:18:11;101685.00;;;17.20
20733;BMP180;10527;52.124;5.196;2023-04-06T00:20:38;101683.00;;;17.20
20733;BMP180;10527;52.124;5.196;2023-04-06T00:23:05;101680.00;;;17.20
20733;BMP180;10527;52.124;5.196;2023-04-06T00:25:32;101684.00;;;17.20
20733;BMP180;10527;52.124;5.196;2023-04-06T00:27:59;101682.00;;;17.20
20733;BMP180;10527;52.124;5.196;2023-04-06T00:30:25;101671.00;;;17.20
20733;BMP180;10527;52.124;5.196;2023-04-06T00:32:52;101666.00;;;17.20
20733;BMP180;10527;52.124;5.196;2023-04-06T00:35:19;101673.00;;;17.10
20733;BMP180;10527;52.124;5.196;2023-04-06T00:37:47;101668.00;;;17.10
20733;BMP180;10527;52.124;5.196;2023-04-06T00:40:15;101665.00;;;17.10
20733;BMP180;10527;52.124;5.196;2023-04-06T00:42:42;101657.00;;;17.10
20733;BMP180;10527;52.124;5.196;2023-04-06T00:45:10;101664.00;;;17.10
20733;BMP180;10527;52.124;5.196;2023-04-06T00:47:37;101653.00;;;17.10
20733;BMP180;10527;52.124;5.196;2023-04-06T00:50:05;101655.00;;;17.10
20733;BMP180;10527;52.124;5.196;2023-04-06T00:52:33;101649.00;;;17.10
20733;BMP180;10527;52.124;5.196;2023-04-06T00:55:02;101648.00;;;17.10
20733;BMP180;10527;52.124;5.196;2023-04-06T00:57:29;101634.00;;;17.10
20733;BMP180;10527;52.124;5.196;2023-04-06T00:59:57;101645.00;;;17.10
20733;BMP180;10527;52.124;5.196;2023-04-06T01:02:24;101641.00;;;17.10
20733;BMP180;10527;52.124;5.196;2023-04-06T01:04:53;101643.00;;;17.10
20733;BMP180;10527;52.124;5.196;2023-04-06T01:07:21;101630.00;;;17.10
20733;BMP180;10527;52.124;5.196;2023-04-06T01:09:47;101624.00;;;17.10
20733;BMP180;10527;52.124;5.196;2023-04-06T01:12:31;101629.00;;;17.10
20733;BMP180;10527;52.124;5.196;2023-04-06T01:14:59;101618.00;;;17.10
20733;BMP180;10527;52.124;5.196;2023-04-06T01:17:25;101615.00;;;17.10
20733;BMP180;10527;52.124;5.196;2023-04-06T01:19:52;101618.00;;;17.10
20733;BMP180;10527;52.124;5.196;2023-04-06T01:22:21;101608.00;;;17.10
20733;BMP180;10527;52.124;5.196;2023-04-06T01:24:50;101613.00;;;17.10
20733;BMP180;10527;52.124;5.196;2023-04-06T01:27:17;101614.00;;;17.10
20733;BMP180;10527;52.124;5.196;2023-04-06T01:29:44;101614.00;;;17.10
20733;BMP180;10527;52.124;5.196;2023-04-06T01:32:11;101602.00;;;17.10
20733;BMP180;10527;52.124;5.196;2023-04-06T01:34:37;101608.00;;;17.10
20733;BMP180;10527;52.124;5.196;2023-04-06T01:37:04;101598.00;;;17.10
20733;BMP180;10527;52.124;5.196;2023-04-06T01:39:31;101595.00;;;17.10
20733;BMP180;10527;52.124;5.196;2023-04-06T01:41:58;101589.00;;;17.10
20733;BMP180;10527;52.124;5.196;2023-04-06T01:44:25;101587.00;;;17.10
20733;BMP180;10527;52.124;5.196;2023-04-06T01:46:52;101582.00;;;17.10
20733;BMP180;10527;52.124;5.196;2023-04-06T01:49:19;101581.00;;;17.10
20733;BMP180;10527;52.124;5.196;2023-04-06T01:51:46;101578.00;;;17.10
20733;BMP180;10527;52.124;5.196;2023-04-06T01:54:13;101580.00;;;17.10
20733;BMP180;10527;52.124;5.196;2023-04-06T01:56:39;101585.00;;;17.10
20733;BMP180;10527;52.124;5.196;2023-04-06T01:59:07;101577.00;;;17.10
20733;BMP180;10527;52.124;5.196;2023-04-06T02:01:34;101570.00;;;17.10
20733;BMP180;10527;52.124;5.196;2023-04-06T02:04:01;101570.00;;;17.10
20733;BMP180;10527;52.124;5.196;2023-04-06T02:06:30;101567.00;;;17.10
20733;BMP180;10527;52.124;5.196;2023-04-06T02:08:57;101561.00;;;17.10
20733;BMP180;10527;52.124;5.196;2023-04-06T02:11:24;101566.00;;;17.10
20733;BMP180;10527;52.124;5.196;2023-04-06T02:13:51;101558.00;;;17.10
20733;BMP180;10527;52.124;5.196;2023-04-06T02:16:17;101556.00;;;17.10
20733;BMP180;10527;52.124;5.196;2023-04-06T02:18:44;101548.00;;;17.10
20733;BMP180;10527;52.124;5.196;2023-04-06T02:21:11;101556.00;;;17.20
20733;BMP180;10527;52.124;5.196;2023-04-06T02:23:39;101550.00;;;17.10
20733;BMP180;10527;52.124;5.196;2023-04-06T02:26:06;101551.00;;;17.20
20733;BMP180;10527;52.124;5.196;2023-04-06T02:28:32;101546.00;;;17.10
20733;BMP180;10527;52.124;5.196;2023-04-06T02:30:59;101547.00;;;17.10
20733;BMP180;10527;52.124;5.196;2023-04-06T02:33:26;101539.00;;;17.10
20733;BMP180;10527;52.124;5.196;2023-04-06T02:35:52;101542.00;;;17.10
20733;BMP180;10527;52.124;5.196;2023-04-06T02:38:19;101536.00;;;17.10
20733;BMP180;10527;52.124;5.196;2023-04-06T02:40:46;101528.00;;;17.30
20733;BMP180;10527;52.124;5.196;2023-04-06T02:43:13;101539.00;;;17.20
20733;BMP180;10527;52.124;5.196;2023-04-06T02:45:40;101532.00;;;17.10
20733;BMP180;10527;52.124;5.196;2023-04-06T02:48:07;101529.00;;;17.10
20733;BMP180;10527;52.124;5.196;2023-04-06T02:50:33;101520.00;;;17.10
20733;BMP180;10527;52.124;5.196;2023-04-06T02:53:00;101519.00;;;17.10
20733;BMP180;10527;52.124;5.196;2023-04-06T02:55:27;101514.00;;;17.10
20733;BMP180;10527;52.124;5.196;2023-04-06T02:57:54;101510.00;;;17.10
20733;BMP180;10527;52.124;5.196;2023-04-06T03:00:21;101510.00;;;17.10
20733;BMP180;10527;52.124;5.196;2023-04-06T03:02:48;101500.00;;;17.10
20733;BMP180;10527;52.124;5.196;2023-04-06T03:05:17;101507.00;;;17.10
20733;BMP180;10527;52.124;5.196;2023-04-06T03:07:44;101506.00;;;17.10
20733;BMP180;10527;52.124;5.196;2023-04-06T03:10:11;101503.00;;;17.10
20733;BMP180;10527;52.124;5.196;2023-04-06T03:12:38;101501.00;;;17.10
20733;BMP180;10527;52.124;5.196;2023-04-06T03:15:05;101496.00;;;17.10
20733;BMP180;10527;52.124;5.196;2023-04-06T03:17:32;101496.00;;;17.10
20733;BMP180;10527;52.124;5.196;2023-04-06T03:19:59;101493.00;;;17.10
20733;BMP180;10527;52.124;5.196;2023-04-06T03:22:26;101493.00;;;17.10
20733;BMP180;10527;52.124;5.196;2023-04-06T03:24:52;101494.00;;;17.10
20733;BMP180;10527;52.124;5.196;2023-04-06T03:27:19;101495.00;;;17.10
20733;BMP180;10527;52.124;5.196;2023-04-06T03:29:46;101492.00;;;17.10
20733;BMP180;10527;52.124;5.196;2023-04-06T03:32:13;101491.00;;;17.10
20733;BMP180;10527;52.124;5.196;2023-04-06T03:34:39;101495.00;;;17.10
20733;BMP180;10527;52.124;5.196;2023-04-06T03:37:06;101490.00;;;17.10
20733;BMP180;10527;52.124;5.196;2023-04-06T03:39:36;101490.00;;;17.10
20733;BMP180;10527;52.124;5.196;2023-04-06T03:42:03;101494.00;;;17.10
20733;BMP180;10527;52.124;5.196;2023-04-06T03:44:30;101482.00;;;17.10
20733;BMP180;10527;52.124;5.196;2023-04-06T03:46:57;101489.00;;;17.10
20733;BMP180;10527;52.124;5.196;2023-04-06T03:49:23;101482.00;;;17.10
20733;BMP180;10527;52.124;5.196;2023-04-06T03:51:51;101472.00;;;17.10
20733;BMP180;10527;52.124;5.196;2023-04-06T03:54:18;101481.00;;;17.10
20733;BMP180;10527;52.124;5.196;2023-04-06T03:56:45;101465.00;;;17.10
20733;BMP180;10527;52.124;5.196;2023-04-06T03:59:11;101470.00;;;17.00
20733;BMP180;10527;52.124;5.196;2023-04-06T04:01:38;101467.00;;;17.00
20733;BMP180;10527;52.124;5.196;2023-04-06T04:04:06;101466.00;;;17.00
20733;BMP180;10527;52.124;5.196;2023-04-06T04:06:32;101468.00;;;17.00
20733;BMP180;10527;52.124;5.196;2023-04-06T04:08:59;101465.00;;;17.00
20733;BMP180;10527;52.124;5.196;2023-04-06T04:11:26;101468.00;;;17.00
20733;BMP180;10527;52.124;5.196;2023-04-06T04:13:53;101471.00;;;16.90
20733;BMP180;10527;52.124;5.196;2023-04-06T04:16:20;101473.00;;;17.00
20733;BMP180;10527;52.124;5.196;2023-04-06T04:18:47;101471.00;;;16.90
20733;BMP180;10527;52.124;5.196;2023-04-06T04:21:16;101462.00;;;16.90
20733;BMP180;10527;52.124;5.196;2023-04-06T04:23:42;101465.00;;;16.90
20733;BMP180;10527;52.124;5.196;2023-04-06T04:26:09;101478.00;;;16.90
20733;BMP180;10527;52.124;5.196;2023-04-06T04:28:37;101466.00;;;16.80
20733;BMP180;10527;52.124;5.196;2023-04-06T04:31:04;101468.00;;;16.80
20733;BMP180;10527;52.124;5.196;2023-04-06T04:33:31;101470.00;;;16.90
20733;BMP180;10527;52.124;5.196;2023-04-06T04:35:58;101475.00;;;16.80
20733;BMP180;10527;52.124;5.196;2023-04-06T04:38:25;101474.00;;;16.80
20733;BMP180;10527;52.124;5.196;2023-04-06T04:40:52;101469.00;;;16.90
20733;BMP180;10527;52.124;5.196;2023-04-06T04:43:18;101465.00;;;16.80
20733;BMP180;10527;52.124;5.196;2023-04-06T04:45:45;101456.00;;;16.80
20733;BMP180;10527;52.124;5.196;2023-04-06T04:48:12;101456.00;;;16.90
20733;BMP180;10527;52.124;5.196;2023-04-06T04:50:39;101458.00;;;16.90
20733;BMP180;10527;52.124;5.196;2023-04-06T04:53:06;101456.00;;;16.90
20733;BMP180;10527;52.124;5.196;2023-04-06T04:55:33;101459.00;;;16.90
20733;BMP180;10527;52.124;5.196;2023-04-06T04:57:59;101456.00;;;16.90
20733;BMP180;10527;52.124;5.196;2023-04-06T05:00:26;101454.00;;;16.90
20733;BMP180;10527;52.124;5.196;2023-04-06T05:02:53;101448.00;;;16.90
20733;BMP180;10527;52.124;5.196;2023-04-06T05:05:20;101448.00;;;16.90
20733;BMP180;10527;52.124;5.196;2023-04-06T05:07:47;101447.00;;;16.90
20733;BMP180;10527;52.124;5.196;2023-04-06T05:10:14;101452.00;;;16.90
20733;BMP180;10527;52.124;5.196;2023-04-06T05:12:41;101456.00;;;16.90
20733;BMP180;10527;52.124;5.196;2023-04-06T05:15:08;101449.00;;;16.90
20733;BMP180;10527;52.124;5.196;2023-04-06T05:17:35;101452.00;;;16.90
20733;BMP180;10527;52.124;5.196;2023-04-06T05:20:03;101452.00;;;16.90
20733;BMP180;10527;52.124;5.196;2023-04-06T05:22:29;101443.00;;;16.90
20733;BMP180;10527;52.124;5.196;2023-04-06T05:24:56;101450.00;;;16.90
20733;BMP180;10527;52.124;5.196;2023-04-06T05:27:24;101440.00;;;16.90
20733;BMP180;10527;52.124;5.196;2023-04-06T05:29:52;101446.00;;;16.90
20733;BMP180;10527;52.124;5.196;2023-04-06T05:32:21;101453.00;;;16.90
20733;BMP180;10527;52.124;5.196;2023-04-06T05:34:49;101448.00;;;16.90
20733;BMP180;10527;52.124;5.196;2023-04-06T05:37:16;101449.00;;;16.90
20733;BMP180;10527;52.124;5.196;2023-04-06T05:39:43;101450.00;;;16.90
20733;BMP180;10527;52.124;5.196;2023-04-06T05:42:10;101445.00;;;16.90
20733;BMP180;10527;52.124;5.196;2023-04-06T05:44:38;101442.00;;;16.90
20733;BMP180;10527;52.124;5.196;2023-04-06T05:47:05;101442.00;;;16.90
20733;BMP180;10527;52.124;5.196;2023-04-06T05:49:31;101441.00;;;16.90
20733;BMP180;10527;52.124;5.196;2023-04-06T05:52:01;101445.00;;;16.90
20733;BMP180;10527;52.124;5.196;2023-04-06T05:54:28;101437.00;;;16.90
20733;BMP180;10527;52.124;5.196;2023-04-06T05:56:54;101443.00;;;16.90
20733;BMP180;10527;52.124;5.196;2023-04-06T05:59:21;101447.00;;;16.90
20733;BMP180;10527;52.124;5.196;2023-04-06T06:01:48;101452.00;;;16.90
20733;BMP180;10527;52.124;5.196;2023-04-06T06:04:15;101442.00;;;16.90
20733;BMP180;10527;52.124;5.196;2023-04-06T06:06:41;101441.00;;;16.90
20733;BMP180;10527;52.124;5.196;2023-04-06T06:09:08;101440.00;;;16.90
20733;BMP180;10527;52.124;5.196;2023-04-06T06:11:35;101448.00;;;17.00
20733;BMP180;10527;52.124;5.196;2023-04-06T06:14:04;101446.00;;;17.00
20733;BMP180;10527;52.124;5.196;2023-04-06T06:16:30;101438.00;;;17.00
20733;BMP180;10527;52.124;5.196;2023-04-06T06:18:58;101441.00;;;17.00
20733;BMP180;10527;52.124;5.196;2023-04-06T06:21:25;101441.00;;;17.00
20733;BMP180;10527;52.124;5.196;2023-04-06T06:23:53;101447.00;;;17.10
20733;BMP180;10527;52.124;5.196;2023-04-06T06:26:21;101438.00;;;17.10
20733;BMP180;10527;52.124;5.196;2023-04-06T06:28:48;101431.00;;;17.20
20733;BMP180;10527;52.124;5.196;2023-04-06T06:31:15;101452.00;;;17.20
20733;BMP180;10527;52.124;5.196;2023-04-06T06:33:43;101445.00;;;17.20
20733;BMP180;10527;52.124;5.196;2023-04-06T06:36:10;101440.00;;;17.20
20733;BMP180;10527;52.124;5.196;2023-04-06T06:38:37;101444.00;;;17.30
20733;BMP180;10527;52.124;5.196;2023-04-06T06:41:05;101450.00;;;17.30
20733;BMP180;10527;52.124;5.196;2023-04-06T06:43:32;101452.00;;;17.30
20733;BMP180;10527;52.124;5.196;2023-04-06T06:45:59;101451.00;;;17.40
20733;BMP180;10527;52.124;5.196;2023-04-06T06:48:26;101450.00;;;17.40
20733;BMP180;10527;52.124;5.196;2023-04-06T06:50:52;101441.00;;;17.40
20733;BMP180;10527;52.124;5.196;2023-04-06T06:53:20;101446.00;;;17.40
20733;BMP180;10527;52.124;5.196;2023-04-06T06:55:47;101450.00;;;17.50
20733;BMP180;10527;52.124;5.196;2023-04-06T06:58:18;101446.00;;;17.50
20733;BMP180;10527;52.124;5.196;2023-04-06T07:00:46;101441.00;;;17.50
20733;BMP180;10527;52.124;5.196;2023-04-06T07:03:13;101439.00;;;17.50
20733;BMP180;10527;52.124;5.196;2023-04-06T07:05:46;101433.00;;;17.50
20733;BMP180;10527;52.124;5.196;2023-04-06T07:08:16;101428.00;;;17.50
20733;BMP180;10527;52.124;5.196;2023-04-06T07:10:43;101421.00;;;17.50
20733;BMP180;10527;52.124;5.196;2023-04-06T07:13:10;101428.00;;;17.50
20733;BMP180;10527;52.124;5.196;2023-04-06T07:15:37;101423.00;;;17.60
20733;BMP180;10527;52.124;5.196;2023-04-06T07:18:04;101418.00;;;17.60
20733;BMP180;10527;52.124;5.196;2023-04-06T07:20:31;101428.00;;;17.60
20733;BMP180;10527;52.124;5.196;2023-04-06T07:22:57;101424.00;;;17.60
20733;BMP180;10527;52.124;5.196;2023-04-06T07:25:24;101424.00;;;17.60
20733;BMP180;10527;52.124;5.196;2023-04-06T07:27:51;101418.00;;;17.60
20733;BMP180;10527;52.124;5.196;2023-04-06T07:30:18;101428.00;;;17.60
20733;BMP180;10527;52.124;5.196;2023-04-06T07:32:45;101414.00;;;17.70
20733;BMP180;10527;52.124;5.196;2023-04-06T07:35:12;101422.00;;;17.70
20733;BMP180;10527;52.124;5.196;2023-04-06T07:37:39;101414.00;;;17.70
20733;BMP180;10527;52.124;5.196;2023-04-06T07:40:07;101423.00;;;17.80
20733;BMP180;10527;52.124;5.196;2023-04-06T07:42:34;101427.00;;;17.80
20733;BMP180;10527;52.124;5.196;2023-04-06T07:45:01;101423.00;;;17.80
20733;BMP180;10527;52.124;5.196;2023-04-06T07:47:27;101421.00;;;17.90
20733;BMP180;10527;52.124;5.196;2023-04-06T07:49:55;101425.00;;;17.90
20733;BMP180;10527;52.124;5.196;2023-04-06T07:52:24;101425.00;;;17.90
20733;BMP180;10527;52.124;5.196;2023-04-06T07:54:51;101414.00;;;18.00
20733;BMP180;10527;52.124;5.196;2023-04-06T07:57:18;101432.00;;;18.00
20733;BMP180;10527;52.124;5.196;2023-04-06T07:59:45;101426.00;;;18.10
20733;BMP180;10527;52.124;5.196;2023-04-06T08:02:12;101425.00;;;18.10
20733;BMP180;10527;52.124;5.196;2023-04-06T08:04:39;101418.00;;;18.10
20733;BMP180;10527;52.124;5.196;2023-04-06T08:07:06;101428.00;;;18.20
20733;BMP180;10527;52.124;5.196;2023-04-06T08:09:33;101425.00;;;18.20
20733;BMP180;10527;52.124;5.196;2023-04-06T08:12:00;101427.00;;;18.30
20733;BMP180;10527;52.124;5.196;2023-04-06T08:14:26;101415.00;;;18.30
20733;BMP180;10527;52.124;5.196;2023-04-06T08:16:53;101416.00;;;18.40
20733;BMP180;10527;52.124;5.196;2023-04-06T08:19:20;101418.00;;;18.50
20733;BMP180;10527;52.124;5.196;2023-04-06T08:21:47;101418.00;;;18.50
20733;BMP180;10527;52.124;5.196;2023-04-06T08:24:14;101416.00;;;18.60
20733;BMP180;10527;52.124;5.196;2023-04-06T08:26:41;101418.00;;;18.70
20733;BMP180;10527;52.124;5.196;2023-04-06T08:29:08;101413.00;;;18.80
20733;BMP180;10527;52.124;5.196;2023-04-06T08:31:35;101417.00;;;18.80
20733;BMP180;10527;52.124;5.196;2023-04-06T08:34:05;101414.00;;;18.90
20733;BMP180;10527;52.124;5.196;2023-04-06T08:36:35;101409.00;;;19.00
20733;BMP180;10527;52.124;5.196;2023-04-06T08:39:02;101415.00;;;19.10
20733;BMP180;10527;52.124;5.196;2023-04-06T08:41:29;101411.00;;;19.10
20733;BMP180;10527;52.124;5.196;2023-04-06T08:44:02;101412.00;;;19.20
20733;BMP180;10527;52.124;5.196;2023-04-06T08:46:31;101417.00;;;19.20
20733;BMP180;10527;52.124;5.196;2023-04-06T08:49:00;101422.00;;;19.30
20733;BMP180;10527;52.124;5.196;2023-04-06T08:51:29;101417.00;;;19.30
20733;BMP180;10527;52.124;5.196;2023-04-06T08:53:58;101427.00;;;19.30
20733;BMP180;10527;52.124;5.196;2023-04-06T08:56:27;101420.00;;;19.30
20733;BMP180;10527;52.124;5.196;2023-04-06T08:58:55;101418.00;;;19.30
20733;BMP180;10527;52.124;5.196;2023-04-06T09:01:28;101415.00;;;19.40
20733;BMP180;10527;52.124;5.196;2023-04-06T09:04:00;101424.00;;;19.30
20733;BMP180;10527;52.124;5.196;2023-04-06T09:06:27;101433.00;;;19.30
20733;BMP180;10527;52.124;5.196;2023-04-06T09:08:56;101427.00;;;19.30
20733;BMP180;10527;52.124;5.196;2023-04-06T09:11:23;101420.00;;;19.40
20733;BMP180;10527;52.124;5.196;2023-04-06T09:13:53;101437.00;;;19.40
20733;BMP180;10527;52.124;5.196;2023-04-06T09:16:22;101436.00;;;19.40
20733;BMP180;10527;52.124;5.196;2023-04-06T09:18:49;101438.00;;;19.40
20733;BMP180;10527;52.124;5.196;2023-04-06T09:21:18;101432.00;;;19.40
20733;BMP180;10527;52.124;5.196;2023-04-06T09:24:01;101433.00;;;19.40
20733;BMP180;10527;52.124;5.196;2023-04-06T09:26:29;101432.00;;;19.40
20733;BMP180;10527;52.124;5.196;2023-04-06T09:28:59;101429.00;;;19.40
20733;BMP180;10527;52.124;5.196;2023-04-06T09:31:47;101438.00;;;19.40
20733;BMP180;10527;52.124;5.196;2023-04-06T09:34:22;101435.00;;;19.50
20733;BMP180;10527;52.124;5.196;2023-04-06T09:36:50;101439.00;;;19.40
20733;BMP180;10527;52.124;5.196;2023-04-06T09:39:21;101429.00;;;19.50
20733;BMP180;10527;52.124;5.196;2023-04-06T09:41:52;101434.00;;;19.50
20733;BMP180;10527;52.124;5.196;2023-04-06T09:44:20;101428.00;;;19.50
20733;BMP180;10527;52.124;5.196;2023-04-06T09:46:47;101426.00;;;19.50
20733;BMP180;10527;52.124;5.196;2023-04-06T09:49:30;101428.00;;;19.50
20733;BMP180;10527;52.124;5.196;2023-04-06T09:52:02;101420.00;;;19.50
20733;BMP180;10527;52.124;5.196;2023-04-06T09:54:31;101424.00;;;19.60
20733;BMP180;10527;52.124;5.196;2023-04-06T09:59:50;101425.00;;;19.70
20733;BMP180;10527;52.124;5.196;2023-04-06T10:05:52;101423.00;;;19.70
20733;BMP180;10527;52.124;5.196;2023-04-06T10:08:27;101424.00;;;19.70
20733;BMP180;10527;52.124;5.196;2023-04-06T10:11:00;101426.00;;;19.70
20733;BMP180;10527;52.124;5.196;2023-04-06T10:13:28;101422.00;;;19.70
20733;BMP180;10527;52.124;5.196;2023-04-06T10:15:55;101422.00;;;19.70
20733;BMP180;10527;52.124;5.196;2023-04-06T10:18:24;101424.00;;;19.70
20733;BMP180;10527;52.124;5.196;2023-04-06T10:21:13;101423.00;;;19.80
20733;BMP180;10527;52.124;5.196;2023-04-06T10:23:49;101422.00;;;19.80
20733;BMP180;10527;52.124;5.196;2023-04-06T10:26:21;101420.00;;;19.80
20733;BMP180;10527;52.124;5.196;2023-04-06T10:28:50;101422.00;;;19.70
20733;BMP180;10527;52.124;5.196;2023-04-06T10:31:28;101424.00;;;19.80
20733;BMP180;10527;52.124;5.196;2023-04-06T10:34:00;101422.00;;;19.80
20733;BMP180;10527;52.124;5.196;2023-04-06T10:36:32;101425.00;;;19.80
20733;BMP180;10527;52.124;5.196;2023-04-06T10:39:04;101424.00;;;19.80
20733;BMP180;10527;52.124;5.196;2023-04-06T10:41:45;101412.00;;;19.80
20733;BMP180;10527;52.124;5.196;2023-04-06T10:44:24;101415.00;;;19.70
20733;BMP180;10527;52.124;5.196;2023-04-06T10:46:59;101412.00;;;19.70
20733;BMP180;10527;52.124;5.196;2023-04-06T10:49:29;101408.00;;;19.60
20733;BMP180;10527;52.124;5.196;2023-04-06T10:51:57;101410.00;;;19.60
20733;BMP180;10527;52.124;5.196;2023-04-06T10:54:27;101404.00;;;19.60
20733;BMP180;10527;52.124;5.196;2023-04-06T10:56:54;101404.00;;;19.60
20733;BMP180;10527;52.124;5.196;2023-04-06T10:59:23;101398.00;;;19.50
20733;BMP180;10527;52.124;5.196;2023-04-06T11:01:51;101389.00;;;19.50
20733;BMP180;10527;52.124;5.196;2023-04-06T11:04:20;101386.00;;;19.50
20733;BMP180;10527;52.124;5.196;2023-04-06T11:06:49;101389.00;;;19.50
20733;BMP180;10527;52.124;5.196;2023-04-06T11:09:30;101394.00;;;19.50
20733;BMP180;10527;52.124;5.196;2023-04-06T11:11:58;101386.00;;;19.50
20733;BMP180;10527;52.124;5.196;2023-04-06T11:14:25;101387.00;;;19.50
20733;BMP180;10527;52.124;5.196;2023-04-06T11:16:53;101398.00;;;19.50
20733;BMP180;10527;52.124;5.196;2023-04-06T11:19:21;101384.00;;;19.50
20733;BMP180;10527;52.124;5.196;2023-04-06T11:21:49;101378.00;;;19.50
20733;BMP180;10527;52.124;5.196;2023-04-06T11:24:25;101376.00;;;19.50
20733;BMP180;10527;52.124;5.196;2023-04-06T11:26:57;101370.00;;;19.50
20733;BMP180;10527;52.124;5.196;2023-04-06T11:29:29;101377.00;;;19.50
20733;BMP180;10527;52.124;5.196;2023-04-06T11:32:03;101367.00;;;19.50
20733;BMP180;10527;52.124;5.196;2023-04-06T11:34:39;101370.00;;;19.50
20733;BMP180;10527;52.124;5.196;2023-04-06T11:37:10;101370.00;;;19.50
20733;BMP180;10527;52.124;5.196;2023-04-06T11:39:49;101363.00;;;19.50
20733;BMP180;10527;52.124;5.196;2023-04-06T11:42:28;101358.00;;;19.50
20733;BMP180;10527;52.124;5.196;2023-04-06T11:44:58;101362.00;;;19.50
20733;BMP180;10527;52.124;5.196;2023-04-06T11:47:30;101360.00;;;19.60
20733;BMP180;10527;52.124;5.196;2023-04-06T11:50:14;101359.00;;;19.60
20733;BMP180;10527;52.124;5.196;2023-04-06T11:52:42;101342.00;;;19.60
20733;BMP180;10527;52.124;5.196;2023-04-06T11:55:17;101346.00;;;19.60
20733;BMP180;10527;52.124;5.196;2023-04-06T11:57:44;101340.00;;;19.60
20733;BMP180;10527;52.124;5.196;2023-04-06T12:00:12;101336.00;;;19.60
20733;BMP180;10527;52.124;5.196;2023-04-06T12:02:39;101339.00;;;19.60
20733;BMP180;10527;52.124;5.196;2023-04-06T12:05:07;101345.00;;;19.60
20733;BMP180;10527;52.124;5.196;2023-04-06T12:07:34;101336.00;;;19.60
20733;BMP180;10527;52.124;5.196;2023-04-06T12:10:04;101340.00;;;19.60
20733;BMP180;10527;52.124;5.196;2023-04-06T12:12:31;101332.00;;;19.60
20733;BMP180;10527;52.124;5.196;2023-04-06T12:14:58;101334.00;;;19.60
20733;BMP180;10527;52.124;5.196;2023-04-06T12:17:26;101327.00;;;19.60
20733;BMP180;10527;52.124;5.196;2023-04-06T12:19:53;101335.00;;;19.60
20733;BMP180;10527;52.124;5.196;2023-04-06T12:22:24;101324.00;;;19.60
20733;BMP180;10527;52.124;5.196;2023-04-06T12:24:51;101319.00;;;19.50
20733;BMP180;10527;52.124;5.196;2023-04-06T12:27:18;101330.00;;;19.50
20733;BMP180;10527;52.124;5.196;2023-04-06T12:29:45;101330.00;;;19.60
20733;BMP180;10527;52.124;5.196;2023-04-06T12:32:12;101330.00;;;19.60
20733;BMP180;10527;52.124;5.196;2023-04-06T12:34:38;101330.00;;;19.60
20733;BMP180;10527;52.124;5.196;2023-04-06T12:37:06;101326.00;;;19.60
20733;BMP180;10527;52.124;5.196;2023-04-06T12:39:33;101324.00;;;19.60
20733;BMP180;10527;52.124;5.196;2023-04-06T12:42:00;101322.00;;;19.50
20733;BMP180;10527;52.124;5.196;2023-04-06T12:44:28;101315.00;;;19.50
20733;BMP180;10527;52.124;5.196;2023-04-06T12:46:56;101318.00;;;19.50
20733;BMP180;10527;52.124;5.196;2023-04-06T12:49:23;101316.00;;;19.50
20733;BMP180;10527;52.124;5.196;2023-04-06T12:51:50;101306.00;;;19.50
20733;BMP180;10527;52.124;5.196;2023-04-06T12:54:17;101319.00;;;19.50
20733;BMP180;10527;52.124;5.196;2023-04-06T12:56:44;101311.00;;;19.50
20733;BMP180;10527;52.124;5.196;2023-04-06T12:59:11;101297.00;;;19.40
20733;BMP180;10527;52.124;5.196;2023-04-06T13:01:38;101305.00;;;19.40
20733;BMP180;10527;52.124;5.196;2023-04-06T13:04:05;101302.00;;;19.40
20733;BMP180;10527;52.124;5.196;2023-04-06T13:06:31;101308.00;;;19.40
20733;BMP180;10527;52.124;5.196;2023-04-06T13:08:58;101303.00;;;19.30
20733;BMP180;10527;52.124;5.196;2023-04-06T13:11:26;101298.00;;;19.30
20733;BMP180;10527;52.124;5.196;2023-04-06T13:13:54;101291.00;;;19.30
20733;BMP180;10527;52.124;5.196;2023-04-06T13:16:21;101293.00;;;19.30
20733;BMP180;10527;52.124;5.196;2023-04-06T13:18:48;101295.00;;;19.40
20733;BMP180;10527;52.124;5.196;2023-04-06T13:21:16;101288.00;;;19.40
20733;BMP180;10527;52.124;5.196;2023-04-06T13:23:43;101287.00;;;19.40
20733;BMP180;10527;52.124;5.196;2023-04-06T13:26:11;101284.00;;;19.40
20733;BMP180;10527;52.124;5.196;2023-04-06T13:28:40;101273.00;;;19.40
20733;BMP180;10527;52.124;5.196;2023-04-06T13:31:07;101284.00;;;19.40
20733;BMP180;10527;52.124;5.196;2023-04-06T13:33:35;101284.00;;;19.40
20733;BMP180;10527;52.124;5.196;2023-04-06T13:36:03;101283.00;;;19.40
20733;BMP180;10527;52.124;5.196;2023-04-06T13:38:30;101276.00;;;19.50
20733;BMP180;10527;52.124;5.196;2023-04-06T13:40:57;101270.00;;;19.50
20733;BMP180;10527;52.124;5.196;2023-04-06T13:43:24;101276.00;;;19.50
20733;BMP180;10527;52.124;5.196;2023-04-06T13:45:54;101271.00;;;19.50
20733;BMP180;10527;52.124;5.196;2023-04-06T13:48:22;101268.00;;;19.50
20733;BMP180;10527;52.124;5.196;2023-04-06T13:50:49;101265.00;;;19.50
20733;BMP180;10527;52.124;5.196;2023-04-06T13:53:16;101265.00;;;19.50
20733;BMP180;10527;52.124;5.196;2023-04-06T13:55:53;101266.00;;;19.50
20733;BMP180;10527;52.124;5.196;2023-04-06T13:58:21;101261.00;;;19.50
20733;BMP180;10527;52.124;5.196;2023-04-06T14:00:48;101256.00;;;19.50
20733;BMP180;10527;52.124;5.196;2023-04-06T14:03:15;101252.00;;;19.50
20733;BMP180;10527;52.124;5.196;2023-04-06T14:05:42;101254.00;;;19.50
20733;BMP180;10527;52.124;5.196;2023-04-06T14:08:08;101249.00;;;19.50